Home > Products > Valid Products > TAF

000
FTPA31 PHFO 111734
TAFHNL
TAF
PHNL 111734Z 1118/1224 34004KT P6SM FEW025
     FM112000 05012G18KT P6SM FEW030 SCT050
     FM120500 05008KT P6SM FEW025 SCT050
     FM122000 06012KT P6SM FEW030 SCT050=



000
FTPA31 PHFO 111449 AAA
TAFHNL
TAF AMD
PHNL 111449Z 1115/1218 34004KT P6SM FEW025
     FM112000 05012G18KT P6SM FEW030 SCT050
     FM120500 05008KT P6SM FEW025 SCT050=



000
FTPA31 PHFO 111120
TAFHNL
TAF
PHNL 111120Z 1112/1218 34004KT P6SM FEW025
     FM112000 05012G18KT P6SM FEW030 SCT050
     FM120500 05008KT P6SM FEW025 SCT050=



000
FTPA31 PHFO 110844 AAA
TAFHNL
TAF AMD
PHNL 110844Z 1109/1212 02005KT P6SM FEW030
     FM112000 05012G18KT P6SM FEW030 SCT050
     FM120500 05008KT P6SM FEW030 SCT050=



000
FTPA31 PHFO 110523
TAFHNL
TAF
PHNL 110523Z 1106/1212 VRB04KT P6SM SKC
     FM112000 05012G18KT P6SM FEW030 SCT050
     FM120500 05008KT P6SM FEW030 SCT050=



000
FTPA31 PHFO 110523
TAFHNL
TAF
PHNL 110523Z 1106/1212 VRB04KT P6SM SKC
     FM112000 05012G18KT P6SM FEW030 SCT050
     FM120500 05008KT P6SM FEW030 SCT050=



000
FTPA31 PHFO 110523
TAFHNL
TAF
PHNL 110523Z 1106/1212 VRB04KT P6SM SKC
     FM112000 05012G18KT P6SM FEW030 SCT050
     FM120500 05008KT P6SM FEW030 SCT050=



000
FTPA31 PHFO 110259 AAA
TAFHNL
TAF AMD
PHNL 110259Z 1103/1206 22008KT P6SM FEW035 SCT045
     FM110500 VRB04KT P6SM FEW035
     FM112000 05010G15KT P6SM FEW035 SCT050
     FM120500 05007KT P6SM FEW035 SCT050=



000
FTPA31 PHFO 110259 AAA
TAFHNL
TAF AMD
PHNL 110259Z 1103/1206 22008KT P6SM FEW035 SCT045
     FM110500 VRB04KT P6SM FEW035
     FM112000 05010G15KT P6SM FEW035 SCT050
     FM120500 05007KT P6SM FEW035 SCT050=



000
FTPA31 PHFO 110259 AAA
TAFHNL
TAF AMD
PHNL 110259Z 1103/1206 22008KT P6SM FEW035 SCT045
     FM110500 VRB04KT P6SM FEW035
     FM112000 05010G15KT P6SM FEW035 SCT050
     FM120500 05007KT P6SM FEW035 SCT050=



000
FTPA31 PHFO 102332
TAFHNL
TAF
PHNL 102332Z 1100/1206 17008KT P6SM FEW035 SCT050
     FM110500 VRB04KT P6SM FEW035
     FM112000 05010G15KT P6SM FEW035 SCT050
     FM120500 05007KT P6SM FEW035 SCT050=



000
FTPA31 PHFO 102332
TAFHNL
TAF
PHNL 102332Z 1100/1206 17008KT P6SM FEW035 SCT050
     FM110500 VRB04KT P6SM FEW035
     FM112000 05010G15KT P6SM FEW035 SCT050
     FM120500 05007KT P6SM FEW035 SCT050=



000
FTPA31 PHFO 102332
TAFHNL
TAF
PHNL 102332Z 1100/1206 17008KT P6SM FEW035 SCT050
     FM110500 VRB04KT P6SM FEW035
     FM112000 05010G15KT P6SM FEW035 SCT050
     FM120500 05007KT P6SM FEW035 SCT050=



000
FTPA31 PHFO 102105 AAA
TAFHNL
TAF AMD
PHNL 102105Z 1021/1124 21008KT P6SM FEW035 SCT050
     FM110500 VRB04KT P6SM FEW035
     FM112000 05011KT P6SM FEW025 SCT050=



000
FTPA31 PHFO 101732
TAFHNL
TAF
PHNL 101732Z 1018/1124 VRB03KT P6SM SKC
     FM102100 17008KT P6SM FEW035 SCT050
     FM110000 21008KT P6SM FEW035 SCT050
     FM110500 VRB04KT P6SM FEW035
     FM112000 05011KT P6SM FEW025 SCT050=



000
FTPA31 PHFO 101732
TAFHNL
TAF
PHNL 101732Z 1018/1124 VRB03KT P6SM SKC
     FM102100 17008KT P6SM FEW035 SCT050
     FM110000 21008KT P6SM FEW035 SCT050
     FM110500 VRB04KT P6SM FEW035
     FM112000 05011KT P6SM FEW025 SCT050=



000
FTPA31 PHFO 101732
TAFHNL
TAF
PHNL 101732Z 1018/1124 VRB03KT P6SM SKC
     FM102100 17008KT P6SM FEW035 SCT050
     FM110000 21008KT P6SM FEW035 SCT050
     FM110500 VRB04KT P6SM FEW035
     FM112000 05011KT P6SM FEW025 SCT050=



000
FTPA31 PHFO 101509 AAA
TAFHNL
TAF AMD
PHNL 101509Z 1015/1118 VRB03KT P6SM SKC
     FM102200 19008KT P6SM FEW035 SCT050
     FM110500 VRB04KT P6SM FEW035=



000
FTPA31 PHFO 101135
TAFHNL
TAF
PHNL 101135Z 1012/1118 VRB03KT P6SM SKC
     FM102200 19008KT P6SM FEW035 SCT050
     FM110500 VRB04KT P6SM FEW035=



000
FTPA31 PHFO 101135
TAFHNL
TAF
PHNL 101135Z 1012/1118 VRB03KT P6SM SKC
     FM102200 19008KT P6SM FEW035 SCT050
     FM110500 VRB04KT P6SM FEW035=



000
FTPA31 PHFO 101135
TAFHNL
TAF
PHNL 101135Z 1012/1118 VRB03KT P6SM SKC
     FM102200 19008KT P6SM FEW035 SCT050
     FM110500 VRB04KT P6SM FEW035=



000
FTPA31 PHFO 100902 AAA
TAFHNL
TAF AMD
PHNL 100902Z 1009/1112 VRB03KT P6SM SKC
     FM102200 19008KT P6SM FEW035 SCT050
     FM110500 04006KT P6SM FEW035 SCT050=



000
FTPA31 PHFO 100538
TAFHNL
TAF
PHNL 100538Z 1006/1112 VRB03KT P6SM SKC
     FM102200 19008KT P6SM FEW035 SCT050
     FM110500 04006KT P6SM FEW035 SCT050=



000
FTPA31 PHFO 100538
TAFHNL
TAF
PHNL 100538Z 1006/1112 VRB03KT P6SM SKC
     FM102200 19008KT P6SM FEW035 SCT050
     FM110500 04006KT P6SM FEW035 SCT050=



000
FTPA31 PHFO 100538
TAFHNL
TAF
PHNL 100538Z 1006/1112 VRB03KT P6SM SKC
     FM102200 19008KT P6SM FEW035 SCT050
     FM110500 04006KT P6SM FEW035 SCT050=



000
FTPA31 PHFO 100256 AAA
TAFHNL
TAF AMD
PHNL 100256Z 1003/1106 21008KT P6SM FEW035 SCT050
     FM100500 VRB03KT P6SM FEW035
     FM101900 07009KT P6SM FEW035 SCT050
     FM110500 04006KT P6SM FEW035 SCT050=



000
FTPA31 PHFO 100256 AAA
TAFHNL
TAF AMD
PHNL 100256Z 1003/1106 21008KT P6SM FEW035 SCT050
     FM100500 VRB03KT P6SM FEW035
     FM101900 07009KT P6SM FEW035 SCT050
     FM110500 04006KT P6SM FEW035 SCT050=



000
FTPA31 PHFO 100256 AAA
TAFHNL
TAF AMD
PHNL 100256Z 1003/1106 21008KT P6SM FEW035 SCT050
     FM100500 VRB03KT P6SM FEW035
     FM101900 07009KT P6SM FEW035 SCT050
     FM110500 04006KT P6SM FEW035 SCT050=



000
FTPA31 PHFO 092343
TAFHNL
TAF
PHNL 092343Z 1000/1106 21008KT P6SM FEW035 SCT050
     FM100500 VRB03KT P6SM FEW035
     FM101900 07009KT P6SM FEW035 SCT050
     FM110500 04006KT P6SM FEW035 SCT050=



000
FTPA31 PHFO 092051 AAA
TAFHNL
TAF AMD
PHNL 092051Z 0921/1024 15005KT P6SM FEW035 SCT050
     FM100000 21008KT P6SM FEW035 SCT050
     FM100500 VRB03KT P6SM SKC
     FM101900 07009KT P6SM FEW035 SCT050=



000
FTPA31 PHFO 091744
TAFHNL
TAF
PHNL 091744Z 0918/1024 30003KT P6SM FEW035
     FM092100 15005KT P6SM FEW035 SCT060
     FM100000 21008KT P6SM FEW035 SCT060
     FM100500 VRB03KT P6SM SKC
     FM101900 07009KT P6SM FEW035 SCT060=



000
FTPA31 PHFO 091509 AAA
TAFHNL
TAF AMD
PHNL 091509Z 0915/1018 30003KT P6SM FEW035
     FM092100 15005KT P6SM FEW035 SCT060
     FM100000 21008KT P6SM FEW035 SCT060
     FM100500 VRB03KT P6SM SKC=



000
FTPA31 PHFO 091509 AAA
TAFHNL
TAF AMD
PHNL 091509Z 0915/1018 30003KT P6SM FEW035
     FM092100 15005KT P6SM FEW035 SCT060
     FM100000 21008KT P6SM FEW035 SCT060
     FM100500 VRB03KT P6SM SKC=



000
FTPA31 PHFO 091129
TAFHNL
TAF
PHNL 091129Z 0912/1018 30003KT P6SM FEW035
     FM092100 15005KT P6SM FEW035 SCT060
     FM100000 21008KT P6SM FEW035 SCT060
     FM100500 VRB03KT P6SM SKC=



000
FTPA31 PHFO 090910 AAA
TAFHNL
TAF AMD
PHNL 090910Z 0909/1012 30003KT P6SM FEW035
     FM092100 15005KT P6SM FEW035 SCT060
     FM100500 VRB03KT P6SM SKC=



000
FTPA31 PHFO 090547
TAFHNL
TAF
PHNL 090547Z 0906/1012 30003KT P6SM FEW035 SCT070
     FM092100 15005KT P6SM FEW035 SCT060
     FM100500 VRB03KT P6SM SKC=



000
FTPA31 PHFO 090547
TAFHNL
TAF
PHNL 090547Z 0906/1012 30003KT P6SM FEW035 SCT070
     FM092100 15005KT P6SM FEW035 SCT060
     FM100500 VRB03KT P6SM SKC=



000
FTPA31 PHFO 090547
TAFHNL
TAF
PHNL 090547Z 0906/1012 30003KT P6SM FEW035 SCT070
     FM092100 15005KT P6SM FEW035 SCT060
     FM100500 VRB03KT P6SM SKC=



000
FTPA31 PHFO 090306 AAA
TAFHNL
TAF AMD
PHNL 090306Z 0903/1006 17008KT P6SM FEW025
     FM090500 32005KT P6SM FEW030 SCT050
     FM091900 03010KT P6SM FEW030 SCT050=



000
FTPA31 PHFO 082335
TAFHNL
TAF
PHNL 082335Z 0900/1006 17008KT P6SM FEW025
     FM090500 32005KT P6SM FEW030 SCT050
     FM091900 03010KT P6SM FEW030 SCT050=



000
FTPA31 PHFO 082335
TAFHNL
TAF
PHNL 082335Z 0900/1006 17008KT P6SM FEW025
     FM090500 32005KT P6SM FEW030 SCT050
     FM091900 03010KT P6SM FEW030 SCT050=



000
FTPA31 PHFO 082335
TAFHNL
TAF
PHNL 082335Z 0900/1006 17008KT P6SM FEW025
     FM090500 32005KT P6SM FEW030 SCT050
     FM091900 03010KT P6SM FEW030 SCT050=



000
FTPA31 PHFO 082058 AAA
TAFHNL
TAF AMD
PHNL 082058Z 0821/0924 03012KT P6SM FEW025 SCT050
     FM090500 32005KT P6SM FEW030 SCT050=



    US Dept of Commerce
    National Oceanic and Atmospheric Administration
    National Weather Service
    1325 East West Highway
    Silver Spring, MD 20910
    Page Author: NWS Internet Services Team
Disclaimer
Information Quality
Credits
Glossary
Privacy Policy
Freedom of Information Act (FOIA)
About Us
Career Opportunities